createdAt,value
2018-06-24T00:00:21.414Z,16.80
2018-06-24T00:02:50.824Z,13.90
2018-06-24T00:05:20.266Z,22.03
2018-06-24T00:07:49.912Z,14.73
2018-06-24T00:10:19.340Z,15.47
2018-06-24T00:12:52.314Z,15.10
2018-06-24T00:15:21.955Z,18.87
2018-06-24T00:17:51.576Z,16.37
2018-06-24T00:20:21.696Z,19.83
2018-06-24T00:22:51.215Z,15.63
2018-06-24T00:25:20.793Z,12.77
2018-06-24T00:27:50.382Z,15.23
2018-06-24T00:30:19.763Z,15.87
2018-06-24T00:32:49.228Z,15.03
2018-06-24T00:35:18.592Z,19.20
2018-06-24T00:37:47.887Z,15.60
2018-06-24T00:40:17.149Z,14.10
2018-06-24T00:42:46.390Z,19.83
2018-06-24T00:45:15.675Z,17.33
2018-06-24T00:47:45.211Z,17.97
2018-06-24T00:50:14.623Z,15.63
2018-06-24T00:52:44.097Z,16.83
2018-06-24T00:55:13.334Z,20.87
2018-06-24T00:57:43.006Z,13.83
2018-06-24T01:00:15.640Z,17.27
2018-06-24T01:02:45.088Z,15.90
2018-06-24T01:05:14.952Z,14.70
2018-06-24T01:07:45.422Z,12.23
2018-06-24T01:10:14.826Z,14.53
2018-06-24T01:12:44.242Z,14.77
2018-06-24T01:15:13.748Z,15.67
2018-06-24T01:17:43.065Z,13.67
2018-06-24T01:20:12.480Z,11.60
2018-06-24T01:22:42.037Z,16.60
2018-06-24T01:28:05.205Z,14.63
2018-06-24T01:30:34.512Z,16.83
2018-06-24T01:33:04.060Z,16.90
2018-06-24T01:35:33.549Z,15.70
2018-06-24T01:38:03.067Z,10.57
2018-06-24T01:40:32.337Z,16.33
2018-06-24T01:43:01.819Z,15.43
2018-06-24T01:45:31.151Z,19.00
2018-06-24T01:48:18.422Z,11.60
2018-06-24T01:50:48.796Z,17.33
2018-06-24T01:53:18.195Z,13.90
2018-06-24T01:55:47.640Z,14.87
2018-06-24T01:58:16.892Z,17.50
2018-06-24T02:00:46.109Z,16.13
2018-06-24T02:03:15.680Z,11.73
2018-06-24T02:05:45.224Z,15.83
2018-06-24T02:08:14.362Z,16.30
2018-06-24T02:10:43.616Z,16.37
2018-06-24T02:13:12.964Z,11.07
2018-06-24T02:15:42.269Z,16.47
2018-06-24T02:18:17.641Z,11.47
2018-06-24T02:20:46.909Z,19.30
2018-06-24T02:23:15.917Z,15.60
2018-06-24T02:25:45.263Z,10.37
2018-06-24T02:28:14.751Z,12.70
2018-06-24T02:30:44.045Z,14.07
2018-06-24T02:33:14.068Z,12.50
2018-06-24T02:35:43.366Z,11.03
2018-06-24T02:38:12.771Z,10.97
2018-06-24T02:40:42.178Z,18.20
2018-06-24T02:43:12.100Z,11.63
2018-06-24T02:45:41.352Z,15.07
2018-06-24T02:48:10.707Z,9.73
2018-06-24T02:53:40.241Z,11.57
2018-06-24T02:56:09.516Z,16.63
2018-06-24T02:58:38.831Z,11.20
2018-06-24T03:01:08.516Z,12.60
2018-06-24T03:03:37.938Z,11.73
2018-06-24T03:06:08.304Z,13.63
2018-06-24T03:08:37.788Z,11.20
2018-06-24T03:11:07.098Z,13.10
2018-06-24T03:13:37.452Z,14.70
2018-06-24T03:16:06.756Z,15.07
2018-06-24T03:18:36.098Z,17.40
2018-06-24T03:21:05.539Z,13.80
2018-06-24T03:23:35.334Z,14.70
2018-06-24T03:26:04.999Z,14.70
2018-06-24T03:28:36.336Z,16.33
2018-06-24T03:31:05.813Z,14.67
2018-06-24T03:33:35.147Z,12.33
2018-06-24T03:36:11.411Z,12.67
2018-06-24T03:38:40.301Z,10.97
2018-06-24T03:41:09.629Z,15.47
2018-06-24T03:43:39.011Z,9.27
2018-06-24T03:46:08.385Z,12.77
2018-06-24T03:48:38.036Z,10.20
2018-06-24T03:51:07.376Z,12.30
2018-06-24T03:53:36.860Z,10.47
2018-06-24T03:56:06.179Z,13.40
2018-06-24T03:58:35.505Z,11.20
2018-06-24T04:01:04.988Z,13.37
2018-06-24T04:03:34.202Z,10.40
2018-06-24T04:06:03.456Z,11.47
2018-06-24T04:08:32.807Z,10.27
2018-06-24T04:11:03.212Z,11.10
2018-06-24T04:13:32.842Z,15.50
2018-06-24T04:16:04.743Z,10.77
2018-06-24T04:18:38.696Z,27.03
2018-06-24T04:21:08.599Z,11.77
2018-06-24T04:23:37.971Z,11.73
2018-06-24T04:26:08.536Z,10.30
2018-06-24T04:28:38.129Z,15.87
2018-06-24T04:31:07.907Z,15.03
2018-06-24T04:33:37.432Z,17.37
2018-06-24T04:36:06.725Z,16.90
2018-06-24T04:38:36.141Z,12.47
2018-06-24T04:41:05.361Z,15.80
2018-06-24T04:43:34.852Z,12.77
2018-06-24T04:46:05.138Z,15.27
2018-06-24T04:48:34.784Z,17.80
2018-06-24T04:51:04.096Z,20.23
2018-06-24T04:53:33.768Z,19.00
2018-06-24T04:56:02.969Z,17.73
2018-06-24T04:58:32.408Z,15.77
2018-06-24T05:01:02.274Z,14.67
2018-06-24T05:03:32.082Z,18.57
2018-06-24T05:06:01.957Z,25.33
2018-06-24T05:08:31.864Z,21.63
2018-06-24T05:11:01.507Z,15.70
2018-06-24T05:13:31.212Z,14.20
2018-06-24T05:16:00.671Z,16.30
2018-06-24T05:18:30.709Z,21.00
2018-06-24T05:21:00.016Z,12.80
2018-06-24T05:23:29.989Z,15.27
2018-06-24T05:25:59.917Z,15.67
2018-06-24T05:28:29.237Z,18.30
2018-06-24T05:30:58.825Z,22.67
2018-06-24T05:33:28.364Z,14.90
2018-06-24T05:35:58.351Z,16.30
2018-06-24T05:38:27.769Z,12.97
2018-06-24T05:40:57.038Z,16.83
2018-06-24T05:46:28.312Z,18.77
2018-06-24T05:48:57.845Z,13.30
2018-06-24T05:51:27.369Z,16.53
2018-06-24T05:53:56.903Z,18.00
2018-06-24T05:56:26.540Z,15.73
2018-06-24T05:58:56.206Z,15.60
2018-06-24T06:01:25.444Z,20.47
2018-06-24T06:03:54.958Z,16.03
2018-06-24T06:06:24.263Z,15.67
2018-06-24T06:08:53.697Z,14.60
2018-06-24T06:11:22.969Z,14.27
2018-06-24T06:13:53.557Z,16.17
2018-06-24T06:16:23.283Z,13.50
2018-06-24T06:18:52.944Z,18.67
2018-06-24T06:21:22.265Z,15.63
2018-06-24T06:23:51.623Z,11.87
2018-06-24T06:26:21.077Z,18.40
2018-06-24T06:28:51.147Z,15.13
2018-06-24T06:31:20.577Z,13.23
2018-06-24T06:33:50.465Z,14.80
2018-06-24T06:36:19.736Z,19.47
2018-06-24T06:38:49.574Z,14.50
2018-06-24T06:41:20.938Z,14.27
2018-06-24T06:43:50.838Z,15.97
2018-06-24T06:46:20.132Z,16.33
2018-06-24T06:48:50.787Z,11.60
2018-06-24T06:51:20.206Z,13.60
2018-06-24T06:53:50.313Z,14.03
2018-06-24T06:56:20.059Z,20.23
2018-06-24T06:58:50.787Z,16.93
2018-06-24T07:01:20.269Z,18.17
2018-06-24T07:03:50.009Z,16.83
2018-06-24T07:06:19.728Z,15.07
2018-06-24T07:08:49.321Z,15.23
2018-06-24T07:11:18.897Z,14.13
2018-06-24T07:13:48.558Z,11.73
2018-06-24T07:16:18.046Z,17.53
2018-06-24T07:18:47.647Z,13.50
2018-06-24T07:21:18.365Z,13.60
2018-06-24T07:23:48.273Z,12.40
2018-06-24T07:26:17.626Z,19.53
2018-06-24T07:28:47.381Z,9.17
2018-06-24T07:31:17.060Z,12.13
2018-06-24T07:33:46.808Z,10.03
2018-06-24T07:36:15.761Z,13.20
2018-06-24T07:38:44.890Z,11.03
2018-06-24T07:41:14.380Z,12.77
2018-06-24T07:43:43.843Z,9.73
2018-06-24T07:46:13.172Z,9.60
2018-06-24T07:48:42.820Z,10.93
2018-06-24T07:51:12.242Z,8.40
2018-06-24T07:53:41.842Z,7.37
2018-06-24T07:56:11.390Z,7.77
2018-06-24T07:58:40.935Z,6.13
2018-06-24T08:01:10.205Z,8.80
2018-06-24T08:03:39.762Z,6.57
2018-06-24T08:06:09.508Z,6.43
2018-06-24T08:08:39.648Z,6.20
2018-06-24T08:11:16.946Z,7.37
2018-06-24T08:13:47.075Z,5.37
2018-06-24T08:16:16.578Z,8.53
2018-06-24T08:18:46.198Z,8.53
2018-06-24T08:21:17.220Z,6.63
2018-06-24T08:23:47.315Z,6.73
2018-06-24T08:26:16.928Z,7.73
2018-06-24T08:28:46.657Z,5.93
2018-06-24T08:31:24.337Z,6.27
2018-06-24T08:33:55.381Z,7.40
2018-06-24T08:36:25.936Z,6.33
2018-06-24T08:38:55.558Z,8.53
2018-06-24T08:41:25.447Z,6.20
2018-06-24T08:43:55.271Z,7.27
2018-06-24T08:46:25.601Z,6.43
2018-06-24T08:49:07.963Z,7.73
2018-06-24T08:51:37.487Z,9.70
2018-06-24T08:54:06.927Z,6.30
2018-06-24T08:56:36.653Z,7.13
2018-06-24T08:59:06.337Z,7.97
2018-06-24T09:01:39.535Z,13.23
2018-06-24T09:04:09.587Z,7.13
2018-06-24T09:06:39.386Z,5.93
2018-06-24T09:09:10.909Z,5.73
2018-06-24T09:11:40.622Z,4.60
2018-06-24T09:14:10.337Z,5.90
2018-06-24T09:16:41.868Z,6.40
2018-06-24T09:19:11.557Z,5.40
2018-06-24T09:21:42.054Z,9.03
2018-06-24T09:24:11.497Z,5.70
2018-06-24T09:26:42.003Z,4.20
2018-06-24T09:29:11.820Z,5.90
2018-06-24T09:31:41.538Z,6.90
2018-06-24T09:34:10.893Z,5.30
2018-06-24T09:36:40.280Z,7.60
2018-06-24T09:39:14.747Z,7.50
2018-06-24T09:41:46.287Z,4.75
2018-06-24T09:44:18.706Z,3.73
2018-06-24T09:46:48.484Z,8.47
2018-06-24T09:49:22.662Z,4.47
2018-06-24T09:51:52.007Z,4.83
2018-06-24T09:54:21.577Z,6.47
2018-06-24T09:56:51.257Z,3.97
2018-06-24T09:59:21.153Z,4.03
2018-06-24T10:01:50.637Z,10.47
2018-06-24T10:04:20.473Z,6.40
2018-06-24T10:06:50.427Z,13.60
2018-06-24T10:09:20.272Z,7.33
2018-06-24T10:11:52.542Z,8.53
2018-06-24T10:14:22.907Z,6.93
2018-06-24T10:16:53.847Z,4.93
2018-06-24T10:19:23.496Z,4.40
2018-06-24T10:21:53.084Z,9.43
2018-06-24T10:24:22.964Z,7.40
2018-06-24T10:30:08.162Z,6.57
2018-06-24T10:32:51.892Z,5.60
2018-06-24T10:35:23.101Z,4.10
2018-06-24T10:37:55.134Z,3.93
2018-06-24T10:40:25.215Z,9.23
2018-06-24T10:42:54.855Z,6.67
2018-06-24T10:45:24.332Z,6.30
2018-06-24T10:47:55.020Z,9.93
2018-06-24T10:50:26.773Z,4.70
2018-06-24T10:52:56.741Z,3.97
2018-06-24T10:55:27.433Z,4.33
2018-06-24T10:57:57.221Z,4.40
2018-06-24T11:00:30.923Z,3.13
2018-06-24T11:03:06.119Z,11.30
2018-06-24T11:05:35.800Z,5.13
2018-06-24T11:08:07.677Z,5.50
2018-06-24T11:10:37.362Z,4.20
2018-06-24T11:13:07.547Z,3.57
2018-06-24T11:15:37.213Z,6.43
2018-06-24T11:18:06.926Z,3.37
2018-06-24T11:20:36.771Z,3.67
2018-06-24T11:23:10.658Z,6.97
2018-06-24T11:25:40.963Z,4.40
2018-06-24T11:30:52.499Z,5.20
2018-06-24T11:33:24.200Z,5.43
2018-06-24T11:35:58.582Z,4.30
2018-06-24T11:38:28.340Z,5.40
2018-06-24T11:40:58.115Z,4.43
2018-06-24T11:43:34.022Z,7.80
2018-06-24T11:46:05.358Z,4.97
2018-06-24T11:48:35.921Z,5.27
2018-06-24T11:51:06.037Z,5.87
2018-06-24T11:53:36.011Z,4.93
2018-06-24T11:56:05.682Z,8.03
2018-06-24T11:58:36.540Z,3.67
2018-06-24T12:01:06.459Z,5.90
2018-06-24T12:03:43.903Z,3.47
2018-06-24T12:06:20.807Z,5.00
2018-06-24T12:08:53.217Z,6.83
2018-06-24T12:11:42.203Z,5.13
2018-06-24T12:14:21.111Z,6.23
2018-06-24T12:17:00.068Z,5.43
2018-06-24T12:19:38.315Z,5.00
2018-06-24T12:22:17.717Z,3.33
2018-06-24T12:24:48.743Z,3.57
2018-06-24T12:27:18.607Z,3.37
2018-06-24T12:29:52.035Z,3.20
2018-06-24T12:32:23.793Z,3.30
2018-06-24T12:34:55.968Z,3.43
2018-06-24T12:37:40.269Z,3.93
2018-06-24T12:40:15.912Z,4.50
2018-06-24T12:42:49.572Z,4.30
2018-06-24T12:48:20.162Z,2.97
2018-06-24T12:50:58.405Z,4.07
2018-06-24T12:53:31.061Z,4.00
2018-06-24T12:56:02.690Z,2.43
2018-06-24T12:58:32.390Z,2.70
2018-06-24T13:01:25.299Z,2.87
2018-06-24T13:15:56.249Z,4.27
2018-06-24T13:18:32.120Z,3.43
2018-06-24T13:21:11.817Z,2.40
2018-06-24T13:23:42.508Z,3.67
2018-06-24T13:26:11.877Z,2.20
2018-06-24T13:28:48.911Z,3.10
2018-06-24T13:31:20.823Z,3.23
2018-06-24T13:33:51.482Z,2.83
2018-06-24T13:36:29.466Z,3.23
2018-06-24T13:39:07.306Z,2.10
2018-06-24T13:41:40.095Z,3.80
2018-06-24T13:44:18.244Z,2.80
2018-06-24T13:46:47.963Z,2.07
2018-06-24T13:49:21.438Z,1.93
2018-06-24T13:51:50.945Z,3.13
2018-06-24T13:54:20.431Z,3.00
2018-06-24T13:56:50.533Z,1.80
2018-06-24T13:59:20.311Z,2.00
2018-06-24T14:01:50.003Z,1.97
2018-06-24T14:04:19.677Z,2.10
2018-06-24T14:06:49.488Z,1.93
2018-06-24T14:09:24.655Z,1.90
2018-06-24T14:11:54.603Z,1.90
2018-06-24T14:14:24.370Z,1.97
2018-06-24T14:16:54.753Z,2.80
2018-06-24T14:19:24.602Z,1.80
2018-06-24T14:21:54.363Z,3.40
2018-06-24T14:24:23.888Z,2.70
2018-06-24T14:26:53.408Z,1.90
2018-06-24T14:29:22.934Z,2.10
2018-06-24T14:31:52.575Z,2.37
2018-06-24T14:34:22.445Z,3.17
2018-06-24T14:36:52.052Z,2.37
2018-06-24T14:39:21.679Z,2.40
2018-06-24T14:42:13.259Z,3.50
2018-06-24T14:44:42.731Z,2.87
2018-06-24T14:47:24.931Z,2.83
2018-06-24T14:49:54.648Z,2.80
2018-06-24T14:52:24.265Z,2.60
2018-06-24T14:54:53.837Z,2.60
2018-06-24T14:57:23.324Z,4.27
2018-06-24T14:59:52.870Z,2.90
2018-06-24T15:02:22.836Z,2.73
2018-06-24T15:04:52.471Z,2.33
2018-06-24T15:07:22.432Z,3.00
2018-06-24T15:09:52.038Z,3.43
2018-06-24T15:12:21.599Z,3.67
2018-06-24T15:14:51.048Z,3.20
2018-06-24T15:17:21.081Z,3.60
2018-06-24T15:19:50.617Z,5.10
2018-06-24T15:22:22.132Z,4.10
2018-06-24T15:24:51.583Z,4.73
2018-06-24T15:27:21.064Z,3.27
2018-06-24T15:29:50.460Z,3.43
2018-06-24T15:32:21.641Z,3.50
2018-06-24T15:34:51.907Z,3.17
2018-06-24T15:37:21.711Z,2.83
2018-06-24T15:39:52.023Z,3.43
2018-06-24T15:42:21.604Z,3.40
2018-06-24T15:44:51.190Z,3.73
2018-06-24T15:47:20.488Z,3.50
2018-06-24T15:49:50.364Z,3.80
2018-06-24T15:52:22.725Z,3.70
2018-06-24T15:54:58.786Z,3.37
2018-06-24T15:57:29.765Z,3.37
2018-06-24T15:59:59.478Z,4.63
2018-06-24T16:02:29.422Z,5.70
2018-06-24T16:04:59.232Z,3.93
2018-06-24T16:07:30.012Z,3.50
2018-06-24T16:10:04.184Z,6.20
2018-06-24T16:12:34.035Z,4.03
2018-06-24T16:15:04.223Z,4.43
2018-06-24T16:17:35.134Z,4.37
2018-06-24T16:20:06.530Z,3.83
2018-06-24T16:22:35.908Z,3.90
2018-06-24T16:25:06.547Z,4.00
2018-06-24T16:27:36.683Z,5.70
2018-06-24T16:30:06.018Z,5.70
2018-06-24T16:32:36.485Z,4.30
2018-06-24T16:35:07.089Z,3.73
2018-06-24T16:37:36.707Z,6.53
2018-06-24T16:43:23.101Z,3.90
2018-06-24T16:45:52.191Z,3.60
2018-06-24T16:48:22.192Z,5.30
2018-06-24T16:50:58.105Z,3.80
2018-06-24T16:53:27.879Z,4.20
2018-06-24T16:55:58.168Z,4.13
2018-06-24T16:58:28.453Z,5.37
2018-06-24T17:00:58.729Z,4.03
2018-06-24T17:03:32.965Z,4.13
2018-06-24T17:06:02.766Z,3.00
2018-06-24T17:08:38.138Z,3.63
2018-06-24T17:11:08.027Z,3.80
2018-06-24T17:13:42.880Z,4.43
2018-06-24T17:16:14.881Z,3.87
2018-06-24T17:18:44.334Z,5.10
2018-06-24T17:21:13.812Z,4.10
2018-06-24T17:23:43.668Z,3.97
2018-06-24T17:26:13.619Z,5.47
2018-06-24T17:28:43.272Z,4.80
2018-06-24T17:31:13.085Z,4.30
2018-06-24T17:33:42.510Z,6.13
2018-06-24T17:36:16.332Z,4.13
2018-06-24T17:38:46.348Z,5.60
2018-06-24T17:41:16.258Z,7.33
2018-06-24T17:43:48.791Z,3.90
2018-06-24T17:46:18.694Z,4.30
2018-06-24T17:48:50.776Z,6.00
2018-06-24T17:51:20.869Z,4.23
2018-06-24T17:53:50.637Z,3.70
2018-06-24T17:56:23.778Z,4.53
2018-06-24T17:59:00.716Z,4.73
2018-06-24T18:01:30.716Z,5.90
2018-06-24T18:04:00.716Z,4.20
2018-06-24T18:06:31.023Z,4.80
2018-06-24T18:09:01.356Z,4.07
2018-06-24T18:11:32.269Z,5.23
2018-06-24T18:14:03.357Z,5.93
2018-06-24T18:16:35.888Z,5.13
2018-06-24T18:19:06.221Z,4.87
2018-06-24T18:21:36.605Z,6.67
2018-06-24T18:24:12.334Z,6.77
2018-06-24T18:26:44.115Z,5.00
2018-06-24T18:29:14.176Z,3.93
2018-06-24T18:31:53.376Z,6.47
2018-06-24T18:37:01.601Z,7.57
2018-06-24T18:39:31.695Z,4.17
2018-06-24T18:42:02.673Z,3.93
2018-06-24T18:44:33.096Z,3.53
2018-06-24T18:47:03.750Z,3.73
2018-06-24T18:49:36.008Z,4.27
2018-06-24T18:52:07.378Z,6.37
2018-06-24T18:54:39.307Z,4.10
2018-06-24T18:57:21.243Z,3.57
2018-06-24T18:59:53.117Z,3.83
2018-06-24T19:02:24.158Z,3.60
2018-06-24T19:04:54.664Z,3.60
2018-06-24T19:07:26.788Z,5.90
2018-06-24T19:09:57.697Z,5.77
2018-06-24T19:12:29.999Z,4.00
2018-06-24T19:15:01.471Z,4.10
2018-06-24T19:17:34.786Z,3.50
2018-06-24T19:20:06.256Z,3.60
2018-06-24T19:22:37.447Z,3.77
2018-06-24T19:25:10.613Z,4.43
2018-06-24T19:27:48.229Z,5.30
2018-06-24T19:30:26.778Z,4.87
2018-06-24T19:32:58.296Z,3.90
2018-06-24T19:35:32.836Z,4.00
2018-06-24T19:38:18.298Z,4.00
2018-06-24T19:40:57.095Z,3.90
2018-06-24T19:43:41.238Z,3.57
2018-06-24T19:46:12.093Z,4.63
2018-06-24T19:48:43.269Z,4.30
2018-06-24T19:51:17.091Z,4.43
2018-06-24T19:53:49.250Z,3.90
2018-06-24T19:56:20.247Z,3.30
2018-06-24T20:05:02.763Z,5.10
2018-06-24T20:07:52.046Z,3.97
2018-06-24T20:13:28.847Z,4.17
2018-06-24T20:15:59.808Z,4.00
2018-06-24T20:18:35.712Z,3.87
2018-06-24T20:21:06.823Z,3.87
2018-06-24T20:23:39.803Z,4.53
2018-06-24T20:26:10.393Z,4.97
2018-06-24T20:28:42.251Z,4.13
2018-06-24T20:31:14.632Z,4.83
2018-06-24T20:33:49.207Z,4.93
2018-06-24T20:36:20.561Z,4.60
2018-06-24T20:38:51.204Z,5.23
2018-06-24T20:41:28.260Z,4.93
2018-06-24T20:46:36.771Z,4.60
2018-06-24T20:49:06.997Z,5.80
2018-06-24T20:51:39.388Z,4.30
2018-06-24T20:54:10.157Z,8.23
2018-06-24T20:56:40.149Z,5.60
2018-06-24T20:59:11.419Z,4.80
2018-06-24T21:01:53.135Z,4.73
2018-06-24T21:04:25.654Z,6.33
2018-06-24T21:07:00.170Z,5.00
2018-06-24T21:09:40.448Z,6.80
2018-06-24T21:12:14.396Z,5.73
2018-06-24T21:14:59.123Z,4.87
2018-06-24T21:17:29.103Z,9.50
2018-06-24T21:20:05.044Z,7.63
2018-06-24T21:22:36.805Z,5.23
2018-06-24T21:25:12.081Z,7.50
2018-06-24T21:27:42.825Z,5.43
2018-06-24T21:30:13.084Z,5.10
2018-06-24T21:32:44.758Z,5.10
2018-06-24T21:35:14.421Z,6.50
2018-06-24T21:37:44.256Z,6.20
2018-06-24T21:40:13.916Z,5.57
2018-06-24T21:42:43.903Z,8.37
2018-06-24T21:45:15.559Z,5.60
2018-06-24T21:47:45.441Z,5.77
2018-06-24T21:50:15.292Z,8.07
2018-06-24T21:52:50.833Z,6.50
2018-06-24T21:55:20.497Z,7.27
2018-06-24T21:57:53.809Z,8.30
2018-06-24T22:00:23.503Z,8.37
2018-06-24T22:02:58.592Z,8.10
2018-06-24T22:05:28.258Z,8.83
2018-06-24T22:07:58.219Z,11.10
2018-06-24T22:10:28.889Z,13.60
2018-06-24T22:12:58.650Z,7.30
2018-06-24T22:15:28.762Z,11.80
2018-06-24T22:17:59.017Z,11.10
2018-06-24T22:20:28.759Z,9.10
2018-06-24T22:23:00.808Z,9.67
2018-06-24T22:25:30.543Z,12.33
2018-06-24T22:28:00.049Z,8.73
2018-06-24T22:30:29.960Z,9.50
2018-06-24T22:32:59.530Z,7.47
2018-06-24T22:35:29.230Z,10.40
2018-06-24T22:37:59.132Z,7.23
2018-06-24T22:40:31.008Z,11.30
2018-06-24T22:43:06.646Z,12.37
2018-06-24T22:45:36.859Z,11.83
2018-06-24T22:48:06.888Z,9.90
2018-06-24T22:50:36.372Z,10.97
2018-06-24T22:53:06.886Z,10.37
2018-06-24T22:55:48.313Z,10.17
2018-06-24T22:58:18.178Z,13.43
2018-06-24T23:00:47.779Z,13.37
2018-06-24T23:03:20.039Z,11.77
2018-06-24T23:05:49.661Z,11.50
2018-06-24T23:08:31.894Z,10.57
2018-06-24T23:11:01.796Z,10.93
2018-06-24T23:13:36.070Z,10.13
2018-06-24T23:16:05.904Z,12.00
2018-06-24T23:18:35.644Z,15.83
2018-06-24T23:21:05.323Z,15.07
2018-06-24T23:23:35.350Z,12.37
2018-06-24T23:26:04.775Z,12.87
2018-06-24T23:28:40.734Z,12.73
2018-06-24T23:31:10.167Z,11.73
2018-06-24T23:33:39.714Z,11.00
2018-06-24T23:36:09.260Z,13.07
2018-06-24T23:38:38.750Z,16.30
2018-06-24T23:41:08.218Z,11.90
2018-06-24T23:43:38.662Z,12.10
2018-06-24T23:46:08.559Z,13.13
2018-06-24T23:48:38.001Z,11.80
2018-06-24T23:51:07.727Z,14.20
2018-06-24T23:53:38.407Z,15.30
2018-06-24T23:56:07.804Z,16.87
2018-06-24T23:58:37.255Z,16.77
